createdAt,value
2019-03-29T00:00:21.034Z,1029.40
2019-03-29T00:01:21.049Z,1029.36
2019-03-29T00:03:13.963Z,1029.36
2019-03-29T00:04:13.969Z,1029.33
2019-03-29T00:06:06.908Z,1029.30
2019-03-29T00:07:07.087Z,1029.29
2019-03-29T00:08:59.797Z,1029.27
2019-03-29T00:09:59.803Z,1029.24
2019-03-29T00:11:52.710Z,1029.25
2019-03-29T00:12:52.722Z,1029.24
2019-03-29T00:14:45.633Z,1029.28
2019-03-29T00:15:45.644Z,1029.26
2019-03-29T00:17:38.553Z,1029.23
2019-03-29T00:18:38.557Z,1029.23
2019-03-29T00:20:31.465Z,1029.25
2019-03-29T00:21:31.478Z,1029.18
2019-03-29T00:23:24.390Z,1029.14
2019-03-29T00:24:24.397Z,1029.18
2019-03-29T00:26:17.297Z,1029.13
2019-03-29T00:27:17.308Z,1029.15
2019-03-29T00:29:10.362Z,1029.14
2019-03-29T00:30:10.224Z,1029.09
2019-03-29T00:32:03.140Z,1029.08
2019-03-29T00:33:03.150Z,1029.04
2019-03-29T00:34:56.050Z,1029.00
2019-03-29T00:35:56.058Z,1028.94
2019-03-29T00:37:53.868Z,1028.91
2019-03-29T00:38:49.014Z,1028.92
2019-03-29T00:40:41.876Z,1028.89
2019-03-29T00:41:41.888Z,1028.92
2019-03-29T00:43:34.954Z,1028.92
2019-03-29T00:44:34.804Z,1028.91
2019-03-29T00:46:27.706Z,1028.90
2019-03-29T00:47:27.722Z,1028.89
2019-03-29T00:49:20.627Z,1028.89
2019-03-29T00:50:20.633Z,1028.90
2019-03-29T00:52:13.535Z,1028.86
2019-03-29T00:53:13.547Z,1028.81
2019-03-29T00:55:06.459Z,1028.81
2019-03-29T00:56:06.460Z,1028.79
2019-03-29T00:57:59.374Z,1028.77
2019-03-29T00:58:59.378Z,1028.75
2019-03-29T01:00:52.277Z,1028.69
2019-03-29T01:01:52.343Z,1028.70
2019-03-29T01:03:45.212Z,1028.65
2019-03-29T01:04:45.200Z,1028.65
2019-03-29T01:06:39.070Z,1028.66
2019-03-29T01:07:38.112Z,1028.59
2019-03-29T01:09:31.092Z,1028.60
2019-03-29T01:10:31.026Z,1028.61
2019-03-29T01:12:23.927Z,1028.60
2019-03-29T01:13:24.241Z,1028.55
2019-03-29T01:15:16.848Z,1028.56
2019-03-29T01:16:16.852Z,1028.56
2019-03-29T01:18:09.762Z,1028.55
2019-03-29T01:19:09.763Z,1028.52
2019-03-29T01:21:02.667Z,1028.49
2019-03-29T01:22:02.677Z,1028.45
2019-03-29T01:23:55.582Z,1028.47
2019-03-29T01:24:55.594Z,1028.49
2019-03-29T01:26:48.492Z,1028.49
2019-03-29T01:27:48.522Z,1028.46
2019-03-29T01:29:41.416Z,1028.47
2019-03-29T01:30:41.419Z,1028.46
2019-03-29T01:32:34.603Z,1028.43
2019-03-29T01:33:34.332Z,1028.40
2019-03-29T01:35:27.725Z,1028.36
2019-03-29T01:36:28.074Z,1028.37
2019-03-29T01:38:22.327Z,1028.38
2019-03-29T01:39:20.647Z,1028.35
2019-03-29T01:41:13.681Z,1028.35
2019-03-29T01:42:13.692Z,1028.34
2019-03-29T01:44:06.602Z,1028.32
2019-03-29T01:45:06.605Z,1028.32
2019-03-29T01:46:59.507Z,1028.30
2019-03-29T01:47:59.517Z,1028.30
2019-03-29T01:49:52.427Z,1028.32
2019-03-29T01:50:52.434Z,1028.32
2019-03-29T01:52:45.993Z,1028.27
2019-03-29T01:53:45.341Z,1028.24
2019-03-29T01:55:38.246Z,1028.20
2019-03-29T01:56:38.250Z,1028.17
2019-03-29T01:58:31.157Z,1028.14
2019-03-29T01:59:31.162Z,1028.15
2019-03-29T02:01:24.063Z,1028.07
2019-03-29T02:02:24.071Z,1028.09
2019-03-29T02:04:16.986Z,1028.09
2019-03-29T02:05:16.980Z,1028.07
2019-03-29T02:07:09.878Z,1028.06
2019-03-29T02:08:09.890Z,1028.04
2019-03-29T02:10:02.796Z,1027.99
2019-03-29T02:11:02.801Z,1027.96
2019-03-29T02:12:55.702Z,1027.91
2019-03-29T02:13:55.715Z,1027.94
2019-03-29T02:15:48.647Z,1027.97
2019-03-29T02:16:48.623Z,1027.99
2019-03-29T02:18:41.533Z,1028.00
2019-03-29T02:19:41.534Z,1027.99
2019-03-29T02:21:34.438Z,1027.99
2019-03-29T02:22:34.446Z,1027.98
2019-03-29T02:24:27.351Z,1028.04
2019-03-29T02:25:27.354Z,1028.01
2019-03-29T02:27:20.255Z,1028.00
2019-03-29T02:28:20.264Z,1027.99
2019-03-29T02:30:13.172Z,1027.99
2019-03-29T02:31:13.179Z,1028.00
2019-03-29T02:33:06.074Z,1027.99
2019-03-29T02:34:06.086Z,1027.97
2019-03-29T02:35:58.988Z,1027.98
2019-03-29T02:36:58.993Z,1027.92
2019-03-29T02:38:55.695Z,1027.89
2019-03-29T02:39:51.905Z,1027.89
2019-03-29T02:41:46.703Z,1027.88
2019-03-29T02:42:44.809Z,1027.89
2019-03-29T02:44:37.714Z,1027.92
2019-03-29T02:45:37.719Z,1027.89
2019-03-29T02:47:30.619Z,1027.87
2019-03-29T02:48:30.629Z,1027.89
2019-03-29T02:50:23.536Z,1027.83
2019-03-29T02:51:23.540Z,1027.81
2019-03-29T02:53:16.440Z,1027.80
2019-03-29T02:54:16.449Z,1027.80
2019-03-29T02:56:09.358Z,1027.81
2019-03-29T02:57:09.358Z,1027.78
2019-03-29T02:59:02.261Z,1027.82
2019-03-29T03:00:02.270Z,1027.79
2019-03-29T03:01:55.164Z,1027.81
2019-03-29T03:02:55.336Z,1027.80
2019-03-29T03:04:48.077Z,1027.77
2019-03-29T03:05:48.086Z,1027.81
2019-03-29T03:07:40.982Z,1027.80
2019-03-29T03:08:40.989Z,1027.87
2019-03-29T03:10:33.894Z,1027.82
2019-03-29T03:11:33.898Z,1027.85
2019-03-29T03:13:26.797Z,1027.86
2019-03-29T03:14:26.817Z,1027.87
2019-03-29T03:16:19.722Z,1027.88
2019-03-29T03:17:19.714Z,1027.82
2019-03-29T03:19:12.622Z,1027.79
2019-03-29T03:20:15.488Z,1027.79
2019-03-29T03:22:05.525Z,1027.80
2019-03-29T03:23:05.533Z,1027.78
2019-03-29T03:24:58.436Z,1027.81
2019-03-29T03:25:58.441Z,1027.81
2019-03-29T03:27:51.334Z,1027.82
2019-03-29T03:28:51.346Z,1027.81
2019-03-29T03:30:44.252Z,1027.75
2019-03-29T03:31:44.306Z,1027.73
2019-03-29T03:33:37.149Z,1027.72
2019-03-29T03:34:37.158Z,1027.74
2019-03-29T03:36:30.065Z,1027.78
2019-03-29T03:37:30.066Z,1027.79
2019-03-29T03:39:31.656Z,1027.80
2019-03-29T03:40:22.975Z,1027.81
2019-03-29T03:42:15.870Z,1027.80
2019-03-29T03:43:15.880Z,1027.78
2019-03-29T03:45:08.787Z,1027.76
2019-03-29T03:46:08.791Z,1027.76
2019-03-29T03:48:01.687Z,1027.72
2019-03-29T03:49:01.706Z,1027.73
2019-03-29T03:50:54.608Z,1027.76
2019-03-29T03:51:54.604Z,1027.75
2019-03-29T03:53:47.501Z,1027.74
2019-03-29T03:54:47.512Z,1027.75
2019-03-29T03:56:40.415Z,1027.79
2019-03-29T03:57:40.419Z,1027.79
2019-03-29T03:59:33.315Z,1027.79
2019-03-29T04:00:33.332Z,1027.79
2019-03-29T04:02:26.230Z,1027.78
2019-03-29T04:03:26.234Z,1027.78
2019-03-29T04:05:19.139Z,1027.75
2019-03-29T04:06:19.141Z,1027.73
2019-03-29T04:08:12.041Z,1027.73
2019-03-29T04:09:12.052Z,1027.75
2019-03-29T04:11:05.008Z,1027.74
2019-03-29T04:12:04.955Z,1027.73
2019-03-29T04:13:57.853Z,1027.74
2019-03-29T04:14:57.867Z,1027.73
2019-03-29T04:16:50.766Z,1027.73
2019-03-29T04:17:50.767Z,1027.71
2019-03-29T04:19:44.169Z,1027.71
2019-03-29T04:20:44.186Z,1027.71
2019-03-29T04:22:37.069Z,1027.72
2019-03-29T04:23:37.082Z,1027.71
2019-03-29T04:25:29.986Z,1027.68
2019-03-29T04:26:29.985Z,1027.65
2019-03-29T04:28:22.884Z,1027.69
2019-03-29T04:29:22.889Z,1027.72
2019-03-29T04:31:16.290Z,1027.69
2019-03-29T04:32:16.294Z,1027.72
2019-03-29T04:34:09.190Z,1027.66
2019-03-29T04:35:09.201Z,1027.65
2019-03-29T04:37:02.104Z,1027.68
2019-03-29T04:38:02.110Z,1027.67
2019-03-29T04:40:06.811Z,1027.68
2019-03-29T04:40:55.014Z,1027.70
2019-03-29T04:42:47.911Z,1027.66
2019-03-29T04:43:47.920Z,1027.63
2019-03-29T04:45:40.825Z,1027.62
2019-03-29T04:46:40.828Z,1027.60
2019-03-29T04:48:33.723Z,1027.62
2019-03-29T04:49:33.734Z,1027.64
2019-03-29T04:51:26.638Z,1027.64
2019-03-29T04:52:26.639Z,1027.68
2019-03-29T04:54:19.537Z,1027.62
2019-03-29T04:55:19.548Z,1027.64
2019-03-29T04:57:12.449Z,1027.66
2019-03-29T04:58:12.450Z,1027.65
2019-03-29T05:00:05.354Z,1027.63
2019-03-29T05:01:05.357Z,1027.64
2019-03-29T05:02:58.256Z,1027.59
2019-03-29T05:03:58.265Z,1027.63
2019-03-29T05:05:51.170Z,1027.63
2019-03-29T05:06:51.171Z,1027.63
2019-03-29T05:08:44.101Z,1027.66
2019-03-29T05:09:44.083Z,1027.66
2019-03-29T05:11:36.983Z,1027.59
2019-03-29T05:12:36.985Z,1027.63
2019-03-29T05:14:29.895Z,1027.62
2019-03-29T05:15:29.898Z,1027.61
2019-03-29T05:17:22.800Z,1027.59
2019-03-29T05:18:22.804Z,1027.60
2019-03-29T05:20:15.708Z,1027.57
2019-03-29T05:21:15.708Z,1027.53
2019-03-29T05:23:08.604Z,1027.56
2019-03-29T05:24:08.615Z,1027.52
2019-03-29T05:26:01.517Z,1027.49
2019-03-29T05:27:01.530Z,1027.48
2019-03-29T05:28:54.419Z,1027.46
2019-03-29T05:29:54.426Z,1027.45
2019-03-29T05:31:47.333Z,1027.46
2019-03-29T05:32:47.335Z,1027.46
2019-03-29T05:34:40.233Z,1027.46
2019-03-29T05:35:40.243Z,1027.44
2019-03-29T05:37:33.150Z,1027.50
2019-03-29T05:38:33.149Z,1027.46
2019-03-29T05:40:34.663Z,1027.44
2019-03-29T05:41:26.054Z,1027.47
2019-03-29T05:43:18.948Z,1027.44
2019-03-29T05:44:18.957Z,1027.48
2019-03-29T05:46:11.863Z,1027.45
2019-03-29T05:47:11.866Z,1027.43
2019-03-29T05:49:04.770Z,1027.42
2019-03-29T05:50:04.772Z,1027.40
2019-03-29T05:51:57.677Z,1027.43
2019-03-29T05:52:57.676Z,1027.42
2019-03-29T05:54:50.580Z,1027.39
2019-03-29T05:55:50.581Z,1027.42
2019-03-29T05:57:43.979Z,1027.45
2019-03-29T05:58:43.986Z,1027.47
2019-03-29T06:00:36.886Z,1027.45
2019-03-29T06:01:36.889Z,1027.45
2019-03-29T06:03:29.789Z,1027.46
2019-03-29T06:04:29.797Z,1027.45
2019-03-29T06:06:22.869Z,1027.47
2019-03-29T06:07:22.873Z,1027.47
2019-03-29T06:09:15.773Z,1027.50
2019-03-29T06:10:15.780Z,1027.49
2019-03-29T06:12:08.685Z,1027.49
2019-03-29T06:13:08.688Z,1027.52
2019-03-29T06:15:01.588Z,1027.57
2019-03-29T06:16:01.601Z,1027.58
2019-03-29T06:17:54.503Z,1027.56
2019-03-29T06:18:54.506Z,1027.53
2019-03-29T06:20:47.409Z,1027.60
2019-03-29T06:21:47.413Z,1027.57
2019-03-29T06:23:40.320Z,1027.58
2019-03-29T06:24:40.325Z,1027.61
2019-03-29T06:26:33.236Z,1027.57
2019-03-29T06:27:33.240Z,1027.54
2019-03-29T06:29:26.152Z,1027.53
2019-03-29T06:30:26.157Z,1027.54
2019-03-29T06:32:19.068Z,1027.59
2019-03-29T06:33:19.075Z,1027.58
2019-03-29T06:35:11.978Z,1027.55
2019-03-29T06:36:11.989Z,1027.55
2019-03-29T06:38:04.902Z,1027.59
2019-03-29T06:39:04.909Z,1027.60
2019-03-29T06:41:03.309Z,1027.57
2019-03-29T06:41:57.825Z,1027.52
2019-03-29T06:43:50.731Z,1027.53
2019-03-29T06:44:50.742Z,1027.51
2019-03-29T06:46:43.661Z,1027.52
2019-03-29T06:47:43.667Z,1027.49
2019-03-29T06:49:36.576Z,1027.52
2019-03-29T06:50:36.609Z,1027.49
2019-03-29T06:52:29.501Z,1027.46
2019-03-29T06:53:29.506Z,1027.46
2019-03-29T06:55:22.409Z,1027.47
2019-03-29T06:56:22.423Z,1027.49
2019-03-29T06:58:15.335Z,1027.42
2019-03-29T06:59:15.342Z,1027.43
2019-03-29T07:01:08.267Z,1027.41
2019-03-29T07:02:08.270Z,1027.39
2019-03-29T07:04:01.167Z,1027.42
2019-03-29T07:05:01.179Z,1027.44
2019-03-29T07:06:54.092Z,1027.45
2019-03-29T07:07:54.096Z,1027.46
2019-03-29T07:09:46.999Z,1027.48
2019-03-29T07:10:47.012Z,1027.48
2019-03-29T07:12:39.921Z,1027.46
2019-03-29T07:13:39.928Z,1027.45
2019-03-29T07:15:32.832Z,1027.50
2019-03-29T07:16:32.843Z,1027.45
2019-03-29T07:18:25.759Z,1027.42
2019-03-29T07:19:25.762Z,1027.40
2019-03-29T07:21:21.725Z,1027.41
2019-03-29T07:22:18.678Z,1027.45
2019-03-29T07:24:11.586Z,1027.41
2019-03-29T07:25:11.595Z,1027.43
2019-03-29T07:27:04.510Z,1027.40
2019-03-29T07:28:04.509Z,1027.43
2019-03-29T07:29:57.429Z,1027.43
2019-03-29T07:30:57.427Z,1027.45
2019-03-29T07:32:50.337Z,1027.47
2019-03-29T07:33:50.345Z,1027.45
2019-03-29T07:35:43.247Z,1027.48
2019-03-29T07:36:43.264Z,1027.44
2019-03-29T07:38:36.170Z,1027.45
2019-03-29T07:39:36.177Z,1027.45
2019-03-29T07:41:32.000Z,1027.43
2019-03-29T07:42:29.588Z,1027.43
2019-03-29T07:44:22.494Z,1027.41
2019-03-29T07:45:22.505Z,1027.43
2019-03-29T07:47:15.415Z,1027.45
2019-03-29T07:48:15.421Z,1027.47
2019-03-29T07:50:08.327Z,1027.45
2019-03-29T07:51:08.337Z,1027.43
2019-03-29T07:53:01.251Z,1027.49
2019-03-29T07:54:01.257Z,1027.48
2019-03-29T07:55:54.163Z,1027.52
2019-03-29T07:56:54.174Z,1027.49
2019-03-29T07:58:47.088Z,1027.47
2019-03-29T07:59:47.092Z,1027.47
2019-03-29T08:01:40.006Z,1027.47
2019-03-29T08:02:40.012Z,1027.49
2019-03-29T08:04:32.919Z,1027.48
2019-03-29T08:05:35.346Z,1027.49
2019-03-29T08:07:27.544Z,1027.46
2019-03-29T08:08:32.031Z,1027.46
2019-03-29T08:10:25.822Z,1027.46
2019-03-29T08:11:25.970Z,1027.47
2019-03-29T08:13:11.690Z,1027.45
2019-03-29T08:14:14.811Z,1027.46
2019-03-29T08:16:06.663Z,1027.47
2019-03-29T08:17:04.600Z,1027.55
2019-03-29T08:18:57.510Z,1027.58
2019-03-29T08:20:35.559Z,1027.55
2019-03-29T08:21:50.924Z,1027.54
2019-03-29T08:22:50.929Z,1027.57
2019-03-29T08:24:43.843Z,1027.52
2019-03-29T08:25:43.846Z,1027.54
2019-03-29T08:27:36.760Z,1027.54
2019-03-29T08:28:36.767Z,1027.53
2019-03-29T08:30:29.672Z,1027.50
2019-03-29T08:31:29.683Z,1027.54
2019-03-29T08:33:22.597Z,1027.49
2019-03-29T08:34:22.603Z,1027.47
2019-03-29T08:36:15.509Z,1027.49
2019-03-29T08:37:15.595Z,1027.51
2019-03-29T08:39:10.151Z,1027.51
2019-03-29T08:40:08.445Z,1027.53
2019-03-29T08:42:01.356Z,1027.52
2019-03-29T08:43:01.362Z,1027.47
2019-03-29T08:44:54.766Z,1027.49
2019-03-29T08:45:57.404Z,1027.47
2019-03-29T08:47:47.688Z,1027.50
2019-03-29T08:48:47.694Z,1027.47
2019-03-29T08:50:40.600Z,1027.44
2019-03-29T08:51:41.593Z,1027.44
2019-03-29T08:53:33.525Z,1027.41
2019-03-29T08:54:33.532Z,1027.43
2019-03-29T08:56:26.438Z,1027.43
2019-03-29T08:57:26.450Z,1027.40
2019-03-29T08:59:19.363Z,1027.39
2019-03-29T09:00:19.370Z,1027.39
2019-03-29T09:02:12.292Z,1027.39
2019-03-29T09:03:12.288Z,1027.39
2019-03-29T09:05:05.193Z,1027.42
2019-03-29T09:06:05.207Z,1027.38
2019-03-29T09:07:58.118Z,1027.35
2019-03-29T09:08:58.127Z,1027.32
2019-03-29T09:10:51.034Z,1027.32
2019-03-29T09:11:51.044Z,1027.34
2019-03-29T09:13:43.957Z,1027.31
2019-03-29T09:14:43.964Z,1027.29
2019-03-29T09:16:36.871Z,1027.28
2019-03-29T09:17:36.886Z,1027.29
2019-03-29T09:19:29.797Z,1027.28
2019-03-29T09:20:29.802Z,1027.28
2019-03-29T09:22:22.727Z,1027.27
2019-03-29T09:23:22.741Z,1027.27
2019-03-29T09:25:15.633Z,1027.27
2019-03-29T09:26:15.646Z,1027.30
2019-03-29T09:28:08.562Z,1027.33
2019-03-29T09:29:08.567Z,1027.33
2019-03-29T09:31:01.477Z,1027.28
2019-03-29T09:32:01.499Z,1027.28
2019-03-29T09:33:54.406Z,1027.24
2019-03-29T09:34:54.409Z,1027.24
2019-03-29T09:36:47.318Z,1027.22
2019-03-29T09:37:47.332Z,1027.15
2019-03-29T09:39:40.247Z,1027.13
2019-03-29T09:40:40.255Z,1027.14
2019-03-29T09:42:33.171Z,1027.16
2019-03-29T09:43:33.197Z,1027.18
2019-03-29T09:45:26.085Z,1027.14
2019-03-29T09:46:26.101Z,1027.15
2019-03-29T09:48:20.508Z,1027.13
2019-03-29T09:49:20.514Z,1027.09
2019-03-29T09:51:13.429Z,1027.05
2019-03-29T09:52:13.438Z,1027.01
2019-03-29T09:54:06.360Z,1027.01
2019-03-29T09:55:06.361Z,1027.00
2019-03-29T09:56:59.273Z,1027.04
2019-03-29T09:57:59.286Z,1027.01
2019-03-29T09:59:52.201Z,1026.99
2019-03-29T10:00:52.208Z,1026.98
2019-03-29T10:02:45.120Z,1026.93
2019-03-29T10:03:45.131Z,1026.91
2019-03-29T10:05:38.049Z,1026.89
2019-03-29T10:06:38.060Z,1026.92
2019-03-29T10:08:30.972Z,1026.84
2019-03-29T10:09:30.977Z,1026.84
2019-03-29T10:11:23.888Z,1026.81
2019-03-29T10:12:23.903Z,1026.77
2019-03-29T10:14:16.820Z,1026.76
2019-03-29T10:15:16.837Z,1026.71
2019-03-29T10:17:09.734Z,1026.66
2019-03-29T10:18:09.748Z,1026.66
2019-03-29T10:20:02.663Z,1026.62
2019-03-29T10:21:02.668Z,1026.66
2019-03-29T10:22:55.579Z,1026.58
2019-03-29T10:23:55.593Z,1026.59
2019-03-29T10:25:48.514Z,1026.54
2019-03-29T10:26:48.519Z,1026.50
2019-03-29T10:28:41.441Z,1026.52
2019-03-29T10:29:41.444Z,1026.50
2019-03-29T10:31:34.353Z,1026.47
2019-03-29T10:32:34.367Z,1026.41
2019-03-29T10:34:27.284Z,1026.43
2019-03-29T10:35:27.293Z,1026.40
2019-03-29T10:37:20.206Z,1026.37
2019-03-29T10:38:20.217Z,1026.36
2019-03-29T10:40:13.134Z,1026.28
2019-03-29T10:41:13.143Z,1026.29
2019-03-29T10:43:06.061Z,1026.25
2019-03-29T10:44:06.067Z,1026.24
2019-03-29T10:45:58.985Z,1026.21
2019-03-29T10:46:58.991Z,1026.22
2019-03-29T10:48:51.908Z,1026.21
2019-03-29T10:49:51.924Z,1026.21
2019-03-29T10:51:44.826Z,1026.15
2019-03-29T10:52:44.843Z,1026.14
2019-03-29T10:54:37.761Z,1026.11
2019-03-29T10:55:37.766Z,1026.08
2019-03-29T10:57:30.678Z,1026.00
2019-03-29T10:58:30.690Z,1025.99
2019-03-29T11:00:23.605Z,1025.97
2019-03-29T11:01:24.807Z,1025.99
2019-03-29T11:03:16.555Z,1025.93
2019-03-29T11:04:16.544Z,1025.96
2019-03-29T11:06:09.455Z,1025.89
2019-03-29T11:07:09.469Z,1025.88
2019-03-29T11:09:02.387Z,1025.90
2019-03-29T11:10:02.405Z,1025.89
2019-03-29T11:11:55.309Z,1025.82
2019-03-29T11:12:55.323Z,1025.85
2019-03-29T11:14:48.241Z,1025.85
2019-03-29T11:15:48.250Z,1025.82
2019-03-29T11:17:41.174Z,1025.77
2019-03-29T11:18:41.176Z,1025.76
2019-03-29T11:20:34.094Z,1025.74
2019-03-29T11:21:34.105Z,1025.74
2019-03-29T11:23:27.298Z,1025.74
2019-03-29T11:24:27.030Z,1025.74
2019-03-29T11:26:20.081Z,1025.79
2019-03-29T11:27:22.448Z,1025.72
2019-03-29T11:29:13.016Z,1025.72
2019-03-29T11:30:13.022Z,1025.68
2019-03-29T11:32:05.939Z,1025.68
2019-03-29T11:33:05.993Z,1025.68
2019-03-29T11:34:58.864Z,1025.64
2019-03-29T11:35:58.877Z,1025.66
2019-03-29T11:37:51.785Z,1025.65
2019-03-29T11:38:51.800Z,1025.61
2019-03-29T11:40:44.715Z,1025.61
2019-03-29T11:41:44.725Z,1025.56
2019-03-29T11:43:37.634Z,1025.54
2019-03-29T11:44:37.651Z,1025.53
2019-03-29T11:46:30.564Z,1025.47
2019-03-29T11:47:30.574Z,1025.50
2019-03-29T11:49:23.490Z,1025.50
2019-03-29T11:50:23.501Z,1025.50
2019-03-29T11:52:16.407Z,1025.47
2019-03-29T11:53:16.423Z,1025.47
2019-03-29T11:55:09.339Z,1025.41
2019-03-29T11:56:09.349Z,1025.41
2019-03-29T11:58:02.265Z,1025.34
2019-03-29T11:59:02.276Z,1025.29
2019-03-29T12:00:55.191Z,1025.28
2019-03-29T12:01:55.200Z,1025.26
2019-03-29T12:03:48.109Z,1025.25
2019-03-29T12:04:48.126Z,1025.24
2019-03-29T12:06:41.041Z,1025.19
2019-03-29T12:07:41.049Z,1025.16
2019-03-29T12:09:33.968Z,1025.17
2019-03-29T12:10:33.981Z,1025.16
2019-03-29T12:12:27.680Z,1025.08
2019-03-29T12:13:35.032Z,1025.07
2019-03-29T12:15:19.822Z,1025.04
2019-03-29T12:16:19.833Z,1025.02
2019-03-29T12:18:12.743Z,1025.00
2019-03-29T12:19:12.760Z,1024.97
2019-03-29T12:21:05.682Z,1025.00
2019-03-29T12:22:05.686Z,1024.96
2019-03-29T12:23:59.090Z,1024.95
2019-03-29T12:24:59.108Z,1024.96
2019-03-29T12:26:54.894Z,1024.95
2019-03-29T12:27:52.034Z,1024.91
2019-03-29T12:29:44.951Z,1024.89
2019-03-29T12:30:44.962Z,1024.90
2019-03-29T12:32:37.872Z,1024.92
2019-03-29T12:33:37.892Z,1024.89
2019-03-29T12:35:30.811Z,1024.87
2019-03-29T12:36:30.818Z,1024.87
2019-03-29T12:38:23.725Z,1024.86
2019-03-29T12:39:23.743Z,1024.81
2019-03-29T12:41:16.663Z,1024.81
2019-03-29T12:42:16.669Z,1024.77
2019-03-29T12:44:09.621Z,1024.75
2019-03-29T12:45:09.596Z,1024.75
2019-03-29T12:47:02.514Z,1024.73
2019-03-29T12:48:02.520Z,1024.74
2019-03-29T12:49:55.439Z,1024.68
2019-03-29T12:50:55.448Z,1024.67
2019-03-29T12:52:48.367Z,1024.66
2019-03-29T12:53:48.377Z,1024.65
2019-03-29T12:55:41.292Z,1024.60
2019-03-29T12:56:41.360Z,1024.58
2019-03-29T12:58:34.213Z,1024.55
2019-03-29T12:59:34.233Z,1024.56
2019-03-29T13:01:38.476Z,1024.54
2019-03-29T13:02:27.165Z,1024.55
2019-03-29T13:04:20.076Z,1024.51
2019-03-29T13:05:20.093Z,1024.53
2019-03-29T13:07:13.013Z,1024.48
2019-03-29T13:08:13.019Z,1024.44
2019-03-29T13:10:05.974Z,1024.42
2019-03-29T13:11:05.945Z,1024.41
2019-03-29T13:13:00.521Z,1024.39
2019-03-29T13:14:09.439Z,1024.40
2019-03-29T13:15:51.795Z,1024.40
2019-03-29T13:16:51.805Z,1024.41
2019-03-29T13:18:44.716Z,1024.31
2019-03-29T13:19:44.732Z,1024.36
2019-03-29T13:21:38.974Z,1024.29
2019-03-29T13:22:37.661Z,1024.32
2019-03-29T13:24:30.573Z,1024.29
2019-03-29T13:25:30.591Z,1024.25
2019-03-29T13:27:23.509Z,1024.25
2019-03-29T13:28:23.518Z,1024.28
2019-03-29T13:30:17.299Z,1024.24
2019-03-29T13:31:16.445Z,1024.21
2019-03-29T13:33:09.356Z,1024.22
2019-03-29T13:34:09.371Z,1024.20
2019-03-29T13:36:02.298Z,1024.13
2019-03-29T13:37:02.301Z,1024.16
2019-03-29T13:38:55.210Z,1024.13
2019-03-29T13:39:55.229Z,1024.09
2019-03-29T13:41:48.146Z,1024.07
2019-03-29T13:42:48.158Z,1024.03
2019-03-29T13:44:41.070Z,1024.05
2019-03-29T13:45:41.087Z,1023.98
2019-03-29T13:47:34.090Z,1023.94
2019-03-29T13:48:34.017Z,1023.95
2019-03-29T13:50:26.934Z,1023.90
2019-03-29T13:51:26.949Z,1023.85
2019-03-29T13:53:19.858Z,1023.85
2019-03-29T13:54:19.872Z,1023.85
2019-03-29T13:56:12.793Z,1023.84
2019-03-29T13:57:12.801Z,1023.82
2019-03-29T13:59:05.777Z,1023.81
2019-03-29T14:00:05.732Z,1023.81
2019-03-29T14:01:59.646Z,1023.73
2019-03-29T14:02:59.657Z,1023.71
2019-03-29T14:04:52.570Z,1023.64
2019-03-29T14:05:52.587Z,1023.65
2019-03-29T14:07:45.509Z,1023.60
2019-03-29T14:08:45.516Z,1023.56
2019-03-29T14:10:38.441Z,1023.58
2019-03-29T14:11:38.449Z,1023.57
2019-03-29T14:13:31.853Z,1023.53
2019-03-29T14:14:38.122Z,1023.52
2019-03-29T14:16:24.790Z,1023.50
2019-03-29T14:17:24.802Z,1023.46
2019-03-29T14:19:17.711Z,1023.46
2019-03-29T14:20:17.730Z,1023.44
2019-03-29T14:22:10.651Z,1023.42
2019-03-29T14:23:10.659Z,1023.38
2019-03-29T14:25:03.574Z,1023.33
2019-03-29T14:26:03.596Z,1023.34
2019-03-29T14:27:56.594Z,1023.33
2019-03-29T14:28:56.519Z,1023.31
2019-03-29T14:30:49.441Z,1023.27
2019-03-29T14:31:49.526Z,1023.27
2019-03-29T14:33:42.384Z,1023.24
2019-03-29T14:34:42.396Z,1023.25
2019-03-29T14:36:35.312Z,1023.19
2019-03-29T14:37:35.319Z,1023.20
2019-03-29T14:39:28.232Z,1023.18
2019-03-29T14:40:28.247Z,1023.17
2019-03-29T14:42:21.164Z,1023.17
2019-03-29T14:43:21.177Z,1023.18
2019-03-29T14:45:14.091Z,1023.19
2019-03-29T14:46:14.287Z,1023.13
2019-03-29T14:48:07.527Z,1023.13
2019-03-29T14:49:07.648Z,1023.10
2019-03-29T14:51:00.797Z,1023.11
2019-03-29T14:52:00.459Z,1023.06
2019-03-29T14:53:53.370Z,1023.04
2019-03-29T14:54:53.387Z,1023.03
2019-03-29T14:56:46.313Z,1023.00
2019-03-29T14:57:46.321Z,1023.01
2019-03-29T14:59:39.230Z,1022.97
2019-03-29T15:00:39.246Z,1022.98
2019-03-29T15:02:32.167Z,1022.90
2019-03-29T15:03:32.178Z,1022.86
2019-03-29T15:05:25.092Z,1022.93
2019-03-29T15:06:25.111Z,1022.96
2019-03-29T15:08:18.033Z,1022.90
2019-03-29T15:09:18.037Z,1022.87
2019-03-29T15:11:21.697Z,1022.84
2019-03-29T15:12:10.967Z,1022.82
2019-03-29T15:14:03.887Z,1022.79
2019-03-29T15:15:06.277Z,1022.81
2019-03-29T15:16:56.820Z,1022.73
2019-03-29T15:17:56.830Z,1022.72
2019-03-29T15:19:49.742Z,1022.65
2019-03-29T15:20:53.843Z,1022.66
2019-03-29T15:22:42.679Z,1022.62
2019-03-29T15:23:42.691Z,1022.65
2019-03-29T15:25:35.604Z,1022.61
2019-03-29T15:26:35.619Z,1022.59
2019-03-29T15:28:28.561Z,1022.61
2019-03-29T15:29:28.552Z,1022.61
2019-03-29T15:31:21.472Z,1022.59
2019-03-29T15:32:21.481Z,1022.53
2019-03-29T15:34:14.397Z,1022.54
2019-03-29T15:35:14.414Z,1022.50
2019-03-29T15:37:09.875Z,1022.49
2019-03-29T15:38:07.346Z,1022.49
2019-03-29T15:40:00.489Z,1022.46
2019-03-29T15:41:00.277Z,1022.46
2019-03-29T15:42:53.201Z,1022.44
2019-03-29T15:43:53.213Z,1022.41
2019-03-29T15:45:46.124Z,1022.41
2019-03-29T15:46:46.143Z,1022.36
2019-03-29T15:48:39.151Z,1022.32
2019-03-29T15:49:39.080Z,1022.31
2019-03-29T15:51:32.068Z,1022.26
2019-03-29T15:52:32.036Z,1022.25
2019-03-29T15:54:24.948Z,1022.21
2019-03-29T15:55:24.953Z,1022.21
2019-03-29T15:57:17.922Z,1022.17
2019-03-29T15:58:17.904Z,1022.13
2019-03-29T16:00:10.794Z,1022.11
2019-03-29T16:01:10.820Z,1022.10
2019-03-29T16:03:04.251Z,1022.09
2019-03-29T16:04:04.241Z,1022.09
2019-03-29T16:05:57.166Z,1022.07
2019-03-29T16:06:57.181Z,1022.05
2019-03-29T16:08:50.116Z,1022.04
2019-03-29T16:09:50.117Z,1022.01
2019-03-29T16:11:43.067Z,1021.95
2019-03-29T16:12:43.024Z,1021.95
2019-03-29T16:14:35.942Z,1021.96
2019-03-29T16:15:38.347Z,1021.95
2019-03-29T16:17:28.861Z,1021.91
2019-03-29T16:18:28.872Z,1021.91
2019-03-29T16:20:21.787Z,1021.88
2019-03-29T16:21:21.804Z,1021.89
2019-03-29T16:23:14.817Z,1021.86
2019-03-29T16:24:14.774Z,1021.81
2019-03-29T16:26:08.141Z,1021.81
2019-03-29T16:27:08.156Z,1021.82
2019-03-29T16:29:01.075Z,1021.82
2019-03-29T16:30:01.090Z,1021.81
2019-03-29T16:31:54.006Z,1021.76
2019-03-29T16:32:54.012Z,1021.77
2019-03-29T16:34:46.926Z,1021.74
2019-03-29T16:35:46.942Z,1021.76
2019-03-29T16:37:39.912Z,1021.70
2019-03-29T16:38:39.873Z,1021.70
2019-03-29T16:40:32.784Z,1021.65
2019-03-29T16:41:32.802Z,1021.67
2019-03-29T16:43:25.720Z,1021.66
2019-03-29T16:44:25.728Z,1021.63
2019-03-29T16:46:18.641Z,1021.67
2019-03-29T16:47:18.655Z,1021.65
2019-03-29T16:49:11.587Z,1021.64
2019-03-29T16:50:11.584Z,1021.64
2019-03-29T16:52:04.502Z,1021.61
2019-03-29T16:53:04.511Z,1021.62
2019-03-29T16:54:57.421Z,1021.62
2019-03-29T16:55:57.435Z,1021.58
2019-03-29T16:57:50.848Z,1021.59
2019-03-29T16:58:50.857Z,1021.58
2019-03-29T17:00:43.771Z,1021.54
2019-03-29T17:01:43.788Z,1021.57
2019-03-29T17:03:36.705Z,1021.53
2019-03-29T17:04:36.823Z,1021.59
2019-03-29T17:06:29.623Z,1021.56
2019-03-29T17:07:29.641Z,1021.58
2019-03-29T17:09:22.559Z,1021.55
2019-03-29T17:10:22.568Z,1021.55
2019-03-29T17:12:15.567Z,1021.55
2019-03-29T17:13:15.587Z,1021.54
2019-03-29T17:15:08.493Z,1021.52
2019-03-29T17:16:08.507Z,1021.51
2019-03-29T17:18:01.423Z,1021.50
2019-03-29T17:19:01.435Z,1021.50
2019-03-29T17:20:54.527Z,1021.50
2019-03-29T17:21:54.371Z,1021.52
2019-03-29T17:23:47.290Z,1021.49
2019-03-29T17:24:56.784Z,1021.50